createdAt,value
2018-01-11T00:01:24.540Z,21.77
2018-01-11T00:03:51.830Z,15.63
2018-01-11T00:06:19.096Z,16.90
2018-01-11T00:08:46.421Z,17.60
2018-01-11T00:11:13.675Z,19.93
2018-01-11T00:13:40.946Z,16.60
2018-01-11T00:16:08.243Z,19.10
2018-01-11T00:18:35.500Z,15.33
2018-01-11T00:21:02.800Z,16.80
2018-01-11T00:23:30.077Z,15.27
2018-01-11T00:25:57.333Z,14.97
2018-01-11T00:28:24.637Z,14.90
2018-01-11T00:30:51.908Z,15.43
2018-01-11T00:33:19.176Z,14.23
2018-01-11T00:35:46.464Z,15.53
2018-01-11T00:38:13.736Z,17.67
2018-01-11T00:40:41.042Z,13.00
2018-01-11T00:43:08.312Z,16.47
2018-01-11T00:45:35.580Z,16.67
2018-01-11T00:48:02.884Z,15.23
2018-01-11T00:50:30.186Z,13.47
2018-01-11T00:52:57.484Z,14.43
2018-01-11T00:55:24.768Z,14.37
2018-01-11T00:57:52.032Z,12.30
2018-01-11T01:00:19.323Z,12.60
2018-01-11T01:02:46.620Z,11.30
2018-01-11T01:05:13.917Z,11.67
2018-01-11T01:07:41.209Z,12.30
2018-01-11T01:10:08.520Z,13.17
2018-01-11T01:12:35.773Z,11.70
2018-01-11T01:15:03.036Z,10.77
2018-01-11T01:17:30.330Z,10.40
2018-01-11T01:19:57.596Z,16.00
2018-01-11T01:22:24.889Z,12.03
2018-01-11T01:24:52.145Z,11.90
2018-01-11T01:27:19.451Z,11.30
2018-01-11T01:29:46.752Z,14.10
2018-01-11T01:32:14.016Z,12.90
2018-01-11T01:34:41.285Z,13.17
2018-01-11T01:37:08.577Z,14.13
2018-01-11T01:39:35.831Z,12.27
2018-01-11T01:42:03.107Z,13.60
2018-01-11T01:44:30.400Z,11.70
2018-01-11T01:46:57.785Z,10.60
2018-01-11T01:49:25.097Z,11.97
2018-01-11T01:51:52.345Z,11.97
2018-01-11T01:54:19.613Z,9.70
2018-01-11T01:56:46.909Z,12.23
2018-01-11T01:59:14.168Z,9.97
2018-01-11T02:01:41.428Z,10.90
2018-01-11T02:04:08.716Z,12.40
2018-01-11T02:06:36.004Z,10.17
2018-01-11T02:09:03.260Z,11.60
2018-01-11T02:11:30.552Z,10.03
2018-01-11T02:13:57.816Z,11.17
2018-01-11T02:16:25.201Z,11.90
2018-01-11T02:18:52.465Z,11.20
2018-01-11T02:21:19.736Z,11.10
2018-01-11T02:23:47.141Z,10.03
2018-01-11T02:26:14.404Z,10.97
2018-01-11T02:28:41.713Z,11.30
2018-01-11T02:31:08.980Z,11.57
2018-01-11T02:33:36.248Z,11.20
2018-01-11T02:36:03.553Z,12.20
2018-01-11T02:38:30.822Z,14.57
2018-01-11T02:40:58.084Z,12.93
2018-01-11T02:43:25.371Z,11.73
2018-01-11T02:45:52.628Z,11.93
2018-01-11T02:48:19.913Z,13.47
2018-01-11T02:50:47.177Z,10.23
2018-01-11T02:53:14.460Z,11.27
2018-01-11T02:55:41.730Z,12.07
2018-01-11T02:58:09.020Z,13.00
2018-01-11T03:00:36.317Z,12.70
2018-01-11T03:03:03.619Z,13.57
2018-01-11T03:05:30.917Z,10.77
2018-01-11T03:07:58.179Z,13.70
2018-01-11T03:10:25.439Z,10.90
2018-01-11T03:12:52.729Z,12.67
2018-01-11T03:15:20.030Z,9.93
2018-01-11T03:17:47.320Z,9.50
2018-01-11T03:20:14.573Z,9.70
2018-01-11T03:22:41.860Z,11.27
2018-01-11T03:25:09.125Z,9.67
2018-01-11T03:27:36.408Z,9.97
2018-01-11T03:30:03.680Z,9.80
2018-01-11T03:32:30.958Z,11.10
2018-01-11T03:34:58.220Z,11.20
2018-01-11T03:37:25.507Z,10.33
2018-01-11T03:39:52.776Z,10.37
2018-01-11T03:42:20.070Z,11.37
2018-01-11T03:44:47.321Z,11.03
2018-01-11T03:47:14.615Z,10.80
2018-01-11T03:49:41.876Z,11.37
2018-01-11T03:52:09.145Z,13.60
2018-01-11T03:54:36.440Z,13.53
2018-01-11T03:57:03.702Z,13.57
2018-01-11T03:59:30.969Z,14.00
2018-01-11T04:01:58.255Z,13.87
2018-01-11T04:04:25.548Z,12.80
2018-01-11T04:06:52.816Z,16.63
2018-01-11T04:09:20.105Z,12.70
2018-01-11T04:11:47.373Z,14.13
2018-01-11T04:14:14.653Z,12.17
2018-01-11T04:16:41.925Z,12.33
2018-01-11T04:19:09.212Z,15.90
2018-01-11T04:21:36.504Z,15.40
2018-01-11T04:24:03.756Z,14.60
2018-01-11T04:26:31.052Z,16.43
2018-01-11T04:28:58.322Z,16.73
2018-01-11T04:31:25.616Z,14.10
2018-01-11T04:33:52.880Z,16.10
2018-01-11T04:36:20.176Z,18.80
2018-01-11T04:38:47.435Z,16.20
2018-01-11T04:41:14.734Z,19.03
2018-01-11T04:43:41.993Z,21.97
2018-01-11T04:46:09.299Z,17.50
2018-01-11T04:48:36.579Z,16.80
2018-01-11T04:51:03.834Z,21.30
2018-01-11T04:53:31.121Z,14.47
2018-01-11T04:55:58.390Z,15.20
2018-01-11T04:58:25.651Z,18.03
2018-01-11T05:00:52.932Z,16.13
2018-01-11T05:03:20.201Z,15.80
2018-01-11T05:05:47.472Z,15.93
2018-01-11T05:08:14.771Z,15.83
2018-01-11T05:10:42.063Z,15.00
2018-01-11T05:13:09.325Z,15.53
2018-01-11T05:15:36.588Z,15.70
2018-01-11T05:18:03.875Z,15.23
2018-01-11T05:20:31.164Z,16.37
2018-01-11T05:22:58.457Z,15.77
2018-01-11T05:25:25.731Z,15.30
2018-01-11T05:27:53.020Z,18.20
2018-01-11T05:30:20.288Z,15.10
2018-01-11T05:32:47.581Z,15.80
2018-01-11T05:35:14.867Z,16.10
2018-01-11T05:37:42.139Z,15.60
2018-01-11T05:40:09.436Z,15.37
2018-01-11T05:42:36.699Z,14.10
2018-01-11T05:45:03.965Z,15.70
2018-01-11T05:47:31.268Z,15.10
2018-01-11T05:49:58.520Z,16.40
2018-01-11T05:52:25.790Z,17.07
2018-01-11T05:54:53.084Z,15.10
2018-01-11T05:57:20.355Z,15.00
2018-01-11T05:59:47.658Z,14.27
2018-01-11T06:02:14.921Z,17.03
2018-01-11T06:04:42.179Z,15.00
2018-01-11T06:07:09.468Z,14.03
2018-01-11T06:09:36.735Z,10.53
2018-01-11T06:12:04.024Z,11.70
2018-01-11T06:14:31.289Z,11.17
2018-01-11T06:16:58.576Z,9.80
2018-01-11T06:19:25.828Z,9.67
2018-01-11T06:21:53.116Z,9.67
2018-01-11T06:24:20.380Z,9.77
2018-01-11T06:26:47.673Z,11.60
2018-01-11T06:29:14.978Z,8.30
2018-01-11T06:31:42.224Z,9.17
2018-01-11T06:34:09.485Z,7.33
2018-01-11T06:36:36.776Z,7.70
2018-01-11T06:39:04.041Z,10.13
2018-01-11T06:41:31.340Z,10.43
2018-01-11T06:43:58.599Z,7.70
2018-01-11T06:46:25.872Z,8.80
2018-01-11T06:48:53.157Z,8.23
2018-01-11T06:51:20.403Z,6.83
2018-01-11T06:53:47.698Z,6.40
2018-01-11T06:56:14.953Z,6.20
2018-01-11T06:58:42.208Z,7.30
2018-01-11T07:01:09.481Z,6.97
2018-01-11T07:03:37.187Z,10.47
2018-01-11T07:06:04.452Z,8.53
2018-01-11T07:08:31.704Z,8.67
2018-01-11T07:10:58.989Z,7.20
2018-01-11T07:13:34.410Z,7.03
2018-01-11T07:16:04.706Z,7.87
2018-01-11T07:18:32.016Z,7.43
2018-01-11T07:20:59.280Z,8.07
2018-01-11T07:23:26.557Z,9.13
2018-01-11T07:25:53.832Z,7.90
2018-01-11T07:28:21.133Z,7.90
2018-01-11T07:30:48.393Z,8.77
2018-01-11T07:33:15.660Z,11.87
2018-01-11T07:35:42.958Z,9.60
2018-01-11T07:38:10.200Z,8.93
2018-01-11T07:40:37.545Z,7.70
2018-01-11T07:43:04.820Z,9.00
2018-01-11T07:45:32.161Z,10.77
2018-01-11T07:47:59.437Z,7.33
2018-01-11T07:50:26.691Z,7.50
2018-01-11T07:52:53.985Z,8.30
2018-01-11T07:55:21.242Z,7.80
2018-01-11T07:57:48.534Z,9.17
2018-01-11T08:00:15.795Z,8.10
2018-01-11T08:05:16.840Z,8.60
2018-01-11T08:07:44.125Z,9.80
2018-01-11T08:10:11.383Z,11.57
2018-01-11T08:12:38.692Z,10.70
2018-01-11T08:15:05.965Z,10.17
2018-01-11T08:17:33.265Z,8.30
2018-01-11T08:20:00.546Z,8.90
2018-01-11T08:22:27.816Z,14.90
2018-01-11T08:24:55.100Z,12.13
2018-01-11T08:27:22.393Z,15.60
2018-01-11T08:29:49.680Z,11.53
2018-01-11T08:32:16.989Z,14.23
2018-01-11T08:34:44.256Z,12.50
2018-01-11T08:37:11.516Z,10.27
2018-01-11T08:39:38.797Z,9.63
2018-01-11T08:42:06.093Z,11.23
2018-01-11T08:44:33.352Z,16.00
2018-01-11T08:47:00.647Z,13.57
2018-01-11T08:49:27.913Z,15.60
2018-01-11T08:51:55.231Z,13.53
2018-01-11T08:54:22.484Z,12.57
2018-01-11T08:56:49.753Z,12.50
2018-01-11T08:59:17.045Z,13.27
2018-01-11T09:01:44.332Z,14.90
2018-01-11T09:04:11.616Z,18.30
2018-01-11T09:06:38.902Z,27.63
2018-01-11T09:09:06.208Z,17.23
2018-01-11T09:11:33.468Z,14.60
2018-01-11T09:14:00.736Z,13.80
2018-01-11T09:16:28.025Z,18.30
2018-01-11T09:18:55.277Z,17.00
2018-01-11T09:21:22.570Z,20.50
2018-01-11T09:23:49.832Z,23.03
2018-01-11T09:26:17.120Z,26.20
2018-01-11T09:28:44.416Z,27.23
2018-01-11T09:31:11.688Z,23.80
2018-01-11T09:33:38.952Z,26.53
2018-01-11T09:36:06.254Z,27.77
2018-01-11T09:38:33.564Z,28.97
2018-01-11T09:41:00.839Z,25.13
2018-01-11T09:43:28.104Z,27.33
2018-01-11T09:45:55.367Z,26.03
2018-01-11T09:48:22.674Z,25.00
2018-01-11T09:50:49.936Z,27.57
2018-01-11T09:53:17.236Z,27.17
2018-01-11T09:55:44.503Z,24.97
2018-01-11T09:58:11.765Z,26.53
2018-01-11T10:00:39.057Z,27.23
2018-01-11T10:03:06.347Z,28.13
2018-01-11T10:05:33.636Z,26.83
2018-01-11T10:08:00.900Z,28.27
2018-01-11T10:10:28.208Z,26.57
2018-01-11T10:12:55.481Z,26.60
2018-01-11T10:15:22.749Z,27.67
2018-01-11T10:17:50.032Z,26.20
2018-01-11T10:20:17.336Z,24.23
2018-01-11T10:22:44.655Z,24.90
2018-01-11T10:25:11.924Z,24.53
2018-01-11T10:27:39.276Z,25.83
2018-01-11T10:30:06.569Z,26.30
2018-01-11T10:32:33.857Z,23.83
2018-01-11T10:35:01.135Z,25.50
2018-01-11T10:37:28.489Z,24.60
2018-01-11T10:39:55.688Z,23.67
2018-01-11T10:42:22.960Z,25.70
2018-01-11T10:44:50.252Z,24.40
2018-01-11T10:47:17.600Z,23.13
2018-01-11T10:49:44.931Z,26.43
2018-01-11T10:52:12.216Z,22.07
2018-01-11T10:54:39.481Z,22.63
2018-01-11T10:57:06.821Z,22.80
2018-01-11T10:59:34.174Z,21.37
2018-01-11T11:02:07.241Z,20.03
2018-01-11T11:04:34.501Z,22.13
2018-01-11T11:07:01.761Z,21.77
2018-01-11T11:09:29.160Z,22.03
2018-01-11T11:11:56.423Z,21.33
2018-01-11T11:14:23.713Z,19.87
2018-01-11T11:16:51.060Z,19.30
2018-01-11T11:19:18.361Z,20.60
2018-01-11T11:21:45.646Z,18.40
2018-01-11T11:24:12.927Z,19.60
2018-01-11T11:26:40.217Z,18.10
2018-01-11T11:29:07.483Z,19.13
2018-01-11T11:31:34.817Z,18.77
2018-01-11T11:34:02.084Z,20.60
2018-01-11T11:36:29.380Z,18.53
2018-01-11T11:38:56.648Z,19.47
2018-01-11T11:41:23.921Z,17.90
2018-01-11T11:43:51.227Z,66.23
2018-01-11T11:46:18.541Z,97.17
2018-01-11T11:48:45.812Z,303.90
2018-01-11T11:51:13.131Z,320.93
2018-01-11T11:53:40.408Z,299.83
2018-01-11T11:56:07.684Z,117.97
2018-01-11T11:58:35.114Z,78.03
2018-01-11T12:01:02.380Z,20.70
2018-01-11T12:03:29.674Z,17.83
2018-01-11T12:05:56.932Z,21.17
2018-01-11T12:08:24.242Z,21.57
2018-01-11T12:10:51.504Z,31.37
2018-01-11T12:13:18.771Z,31.50
2018-01-11T12:15:46.072Z,21.13
2018-01-11T12:18:13.359Z,28.13
2018-01-11T12:20:40.736Z,27.63
2018-01-11T12:23:07.980Z,58.80
2018-01-11T12:25:35.268Z,31.20
2018-01-11T12:28:02.538Z,23.27
2018-01-11T12:30:29.926Z,18.70
2018-01-11T12:32:57.213Z,34.40
2018-01-11T12:35:24.505Z,20.30
2018-01-11T12:37:51.794Z,20.30
2018-01-11T12:40:19.089Z,25.63
2018-01-11T12:42:46.372Z,20.73
2018-01-11T12:45:13.636Z,21.93
2018-01-11T12:47:40.943Z,20.20
2018-01-11T12:50:08.208Z,23.50
2018-01-11T12:52:35.516Z,20.50
2018-01-11T12:55:02.870Z,22.37
2018-01-11T12:57:30.133Z,18.33
2018-01-11T12:59:57.473Z,18.07
2018-01-11T13:02:24.741Z,19.13
2018-01-11T13:04:52.040Z,20.53
2018-01-11T13:07:19.305Z,21.07
2018-01-11T13:09:46.569Z,20.13
2018-01-11T13:12:13.948Z,20.20
2018-01-11T13:14:41.300Z,22.80
2018-01-11T13:17:08.660Z,20.37
2018-01-11T13:19:36.001Z,22.33
2018-01-11T13:22:03.275Z,24.83
2018-01-11T13:24:30.557Z,26.93
2018-01-11T13:26:58.024Z,21.90
2018-01-11T13:29:25.320Z,22.83
2018-01-11T13:31:52.621Z,24.47
2018-01-11T13:34:19.879Z,22.20
2018-01-11T13:36:47.141Z,20.03
2018-01-11T13:39:14.432Z,21.43
2018-01-11T13:41:41.701Z,21.97
2018-01-11T13:44:08.989Z,20.93
2018-01-11T13:46:36.260Z,18.13
2018-01-11T13:49:03.553Z,20.87
2018-01-11T13:51:30.817Z,21.90
2018-01-11T13:53:58.109Z,23.03
2018-01-11T13:56:25.432Z,21.00
2018-01-11T13:59:08.889Z,26.37
2018-01-11T14:01:42.971Z,24.87
2018-01-11T14:04:10.258Z,23.43
2018-01-11T14:06:37.525Z,23.70
2018-01-11T14:09:04.837Z,21.50
2018-01-11T14:11:32.952Z,22.00
2018-01-11T14:14:00.257Z,21.33
2018-01-11T14:16:27.520Z,20.03
2018-01-11T14:18:54.784Z,22.30
2018-01-11T14:21:22.090Z,24.67
2018-01-11T14:23:49.394Z,26.13
2018-01-11T14:26:16.628Z,24.20
2018-01-11T14:28:43.908Z,22.70
2018-01-11T14:31:11.170Z,22.20
2018-01-11T14:33:38.478Z,24.90
2018-01-11T14:36:05.745Z,21.27
2018-01-11T14:38:33.012Z,22.93
2018-01-11T14:41:00.300Z,20.93
2018-01-11T14:43:27.565Z,19.90
2018-01-11T14:45:54.849Z,20.40
2018-01-11T14:48:22.223Z,20.00
2018-01-11T14:50:49.480Z,21.50
2018-01-11T14:53:16.753Z,20.33
2018-01-11T14:55:44.040Z,21.77
2018-01-11T14:58:11.335Z,24.50
2018-01-11T15:00:38.625Z,21.30
2018-01-11T15:03:05.958Z,22.23
2018-01-11T15:05:33.301Z,30.03
2018-01-11T15:08:00.594Z,35.30
2018-01-11T15:10:27.872Z,26.33
2018-01-11T15:12:55.132Z,23.07
2018-01-11T15:15:22.429Z,24.30
2018-01-11T15:17:49.690Z,26.63
2018-01-11T15:20:16.977Z,24.30
2018-01-11T15:22:44.244Z,23.10
2018-01-11T15:25:11.640Z,23.07
2018-01-11T15:27:38.903Z,21.80
2018-01-11T15:30:06.207Z,22.63
2018-01-11T15:32:33.490Z,22.03
2018-01-11T15:35:00.748Z,22.03
2018-01-11T15:37:28.056Z,21.60
2018-01-11T15:39:55.319Z,20.90
2018-01-11T15:42:22.580Z,21.40
2018-01-11T15:44:49.873Z,19.73
2018-01-11T15:47:17.164Z,19.17
2018-01-11T15:49:44.437Z,21.87
2018-01-11T15:52:11.832Z,23.57
2018-01-11T15:54:39.100Z,22.80
2018-01-11T15:57:06.362Z,40.17
2018-01-11T15:59:33.667Z,28.27
2018-01-11T16:02:00.948Z,23.23
2018-01-11T16:04:28.245Z,21.03
2018-01-11T16:06:55.537Z,20.37
2018-01-11T16:09:22.800Z,22.03
2018-01-11T16:11:50.112Z,18.63
2018-01-11T16:14:17.369Z,20.17
2018-01-11T16:16:44.636Z,20.00
2018-01-11T16:19:11.924Z,16.10
2018-01-11T16:21:39.215Z,19.17
2018-01-11T16:24:06.508Z,18.53
2018-01-11T16:26:33.820Z,16.97
2018-01-11T16:29:01.078Z,15.30
2018-01-11T16:31:28.360Z,15.67
2018-01-11T16:33:55.625Z,15.00
2018-01-11T16:36:22.918Z,16.13
2018-01-11T16:38:50.180Z,13.60
2018-01-11T16:41:17.476Z,18.03
2018-01-11T16:43:44.773Z,13.80
2018-01-11T16:46:12.129Z,18.17
2018-01-11T16:48:39.435Z,16.00
2018-01-11T16:51:06.704Z,16.57
2018-01-11T16:53:33.964Z,14.90
2018-01-11T16:56:01.245Z,19.70
2018-01-11T16:58:28.596Z,17.67
2018-01-11T17:00:55.952Z,16.77
2018-01-11T17:03:23.219Z,16.60
2018-01-11T17:05:50.557Z,15.60
2018-01-11T17:08:17.855Z,17.47
2018-01-11T17:10:45.115Z,20.40
2018-01-11T17:13:12.422Z,16.57
2018-01-11T17:15:39.718Z,18.57
2018-01-11T17:18:06.984Z,19.40
2018-01-11T17:20:34.273Z,19.53
2018-01-11T17:23:01.532Z,18.40
2018-01-11T17:25:28.805Z,19.47
2018-01-11T17:27:56.096Z,18.73
2018-01-11T17:30:23.363Z,17.50
2018-01-11T17:32:50.620Z,19.33
2018-01-11T17:35:17.904Z,19.53
2018-01-11T17:37:45.263Z,19.20
2018-01-11T17:40:12.620Z,19.50
2018-01-11T17:42:39.977Z,17.03
2018-01-11T17:45:07.271Z,18.33
2018-01-11T17:47:34.536Z,17.67
2018-01-11T17:50:01.843Z,20.03
2018-01-11T17:52:29.105Z,20.00
2018-01-11T17:54:56.365Z,19.30
2018-01-11T17:57:23.663Z,18.80
2018-01-11T17:59:50.952Z,20.00
2018-01-11T18:02:18.220Z,19.37
2018-01-11T18:04:45.483Z,18.63
2018-01-11T18:07:12.784Z,23.60
2018-01-11T18:09:40.061Z,25.20
2018-01-11T18:12:07.424Z,25.43
2018-01-11T18:14:34.716Z,26.23
2018-01-11T18:17:01.977Z,23.63
2018-01-11T18:19:29.276Z,25.13
2018-01-11T18:21:56.640Z,20.03
2018-01-11T18:24:23.999Z,22.53
2018-01-11T18:26:51.333Z,22.87
2018-01-11T18:29:18.595Z,18.70
2018-01-11T18:31:45.859Z,20.50
2018-01-11T18:34:13.123Z,20.30
2018-01-11T18:36:40.408Z,19.00
2018-01-11T18:39:07.703Z,20.27
2018-01-11T18:41:34.992Z,18.20
2018-01-11T18:44:02.258Z,20.27
2018-01-11T18:46:29.583Z,19.33
2018-01-11T18:48:56.851Z,18.97
2018-01-11T18:51:24.140Z,17.43
2018-01-11T18:53:51.413Z,17.77
2018-01-11T18:56:18.696Z,18.37
2018-01-11T18:58:45.980Z,19.60
2018-01-11T19:01:13.252Z,19.00
2018-01-11T19:03:40.607Z,19.93
2018-01-11T19:06:07.878Z,17.73
2018-01-11T19:08:35.173Z,16.97
2018-01-11T19:11:02.444Z,16.97
2018-01-11T19:13:29.785Z,16.77
2018-01-11T19:15:57.082Z,19.80
2018-01-11T19:18:24.347Z,20.63
2018-01-11T19:20:51.640Z,19.93
2018-01-11T19:23:18.933Z,24.37
2018-01-11T19:25:46.233Z,18.43
2018-01-11T19:28:13.500Z,19.07
2018-01-11T19:30:40.763Z,16.63
2018-01-11T19:33:08.053Z,15.30
2018-01-11T19:35:35.333Z,15.07
2018-01-11T19:38:02.664Z,14.50
2018-01-11T19:40:29.936Z,13.10
2018-01-11T19:42:57.243Z,12.10
2018-01-11T19:45:24.495Z,13.43
2018-01-11T19:47:55.661Z,12.10
2018-01-11T19:50:22.954Z,11.10
2018-01-11T19:52:50.241Z,11.00
2018-01-11T19:55:17.503Z,9.70
2018-01-11T19:57:44.794Z,8.90
2018-01-11T20:00:12.089Z,9.00
2018-01-11T20:02:39.345Z,10.03
2018-01-11T20:05:06.612Z,10.27
2018-01-11T20:07:33.912Z,10.63
2018-01-11T20:10:01.175Z,12.30
2018-01-11T20:12:28.461Z,14.33
2018-01-11T20:14:55.760Z,9.60
2018-01-11T20:17:23.044Z,12.20
2018-01-11T20:19:50.310Z,9.20
2018-01-11T20:22:17.586Z,7.33
2018-01-11T20:24:44.944Z,7.70
2018-01-11T20:27:12.224Z,7.63
2018-01-11T20:29:39.477Z,8.60
2018-01-11T20:32:06.815Z,9.23
2018-01-11T20:34:34.084Z,10.47
2018-01-11T20:37:01.380Z,11.53
2018-01-11T20:39:28.652Z,10.93
2018-01-11T20:41:55.913Z,11.87
2018-01-11T20:44:23.198Z,9.20
2018-01-11T20:46:50.537Z,8.80
2018-01-11T20:49:17.816Z,9.87
2018-01-11T20:51:45.076Z,10.63
2018-01-11T20:54:12.367Z,10.47
2018-01-11T20:56:39.664Z,15.37
2018-01-11T20:59:06.928Z,13.17
2018-01-11T21:01:34.212Z,20.27
2018-01-11T21:04:01.518Z,20.67
2018-01-11T21:06:28.795Z,18.50
2018-01-11T21:08:56.085Z,18.10
2018-01-11T21:11:23.379Z,19.70
2018-01-11T21:13:50.644Z,25.60
2018-01-11T21:16:17.949Z,21.83
2018-01-11T21:18:45.217Z,23.20
2018-01-11T21:21:12.484Z,20.97
2018-01-11T21:23:39.764Z,22.87
2018-01-11T21:26:07.024Z,20.97
2018-01-11T21:28:34.308Z,21.90
2018-01-11T21:31:01.572Z,27.47
2018-01-11T21:33:28.886Z,21.73
2018-01-11T21:35:56.153Z,23.37
2018-01-11T21:38:23.420Z,24.53
2018-01-11T21:40:50.740Z,23.47
2018-01-11T21:43:18.011Z,24.77
2018-01-11T21:45:45.276Z,25.40
2018-01-11T21:48:12.564Z,26.50
2018-01-11T21:50:40.345Z,23.10
2018-01-11T21:53:12.344Z,21.80
2018-01-11T21:55:43.139Z,20.00
2018-01-11T21:58:10.409Z,21.97
2018-01-11T22:00:37.671Z,16.80
2018-01-11T22:03:05.065Z,16.70
2018-01-11T22:05:32.324Z,16.47
2018-01-11T22:07:59.593Z,18.53
2018-01-11T22:10:26.889Z,20.20
2018-01-11T22:12:54.157Z,18.87
2018-01-11T22:15:21.420Z,19.47
2018-01-11T23:01:29.304Z,18.13
2018-01-11T23:03:56.601Z,16.67
2018-01-11T23:06:23.856Z,20.00
2018-01-11T23:08:51.224Z,18.13
2018-01-11T23:11:24.174Z,17.27
2018-01-11T23:13:51.456Z,18.47
2018-01-11T23:16:18.724Z,15.10
2018-01-11T23:18:46.013Z,14.43
2018-01-11T23:21:13.275Z,13.57
2018-01-11T23:23:40.556Z,14.77
2018-01-11T23:26:07.825Z,12.87
2018-01-11T23:28:35.105Z,13.37
2018-01-11T23:31:02.368Z,14.57
2018-01-11T23:33:29.653Z,16.57
2018-01-11T23:35:56.927Z,12.97
2018-01-11T23:38:24.201Z,15.93
2018-01-11T23:40:51.480Z,18.77
2018-01-11T23:43:18.754Z,16.43
2018-01-11T23:45:46.037Z,15.10
2018-01-11T23:48:13.307Z,16.40
2018-01-11T23:50:40.589Z,15.20
2018-01-11T23:53:07.855Z,15.30
2018-01-11T23:55:35.135Z,17.40
2018-01-11T23:58:02.397Z,16.10
